createdAt,value
2023-01-20T00:00:00.845Z,100569.94
2023-01-20T00:02:46.307Z,100573.34
2023-01-20T00:05:31.991Z,100576.66
2023-01-20T00:08:17.658Z,100580.94
2023-01-20T00:11:07.966Z,100585.91
2023-01-20T00:13:55.748Z,100584.28
2023-01-20T00:16:41.228Z,100585.06
2023-01-20T00:19:27.583Z,100591.84
2023-01-20T00:22:12.883Z,100588.50
2023-01-20T00:24:58.572Z,100602.16
2023-01-20T00:27:44.173Z,100607.19
2023-01-20T00:30:30.007Z,100620.91
2023-01-20T00:33:15.428Z,100617.44
2023-01-20T00:36:01.082Z,100623.47
2023-01-20T00:38:47.015Z,100625.81
2023-01-20T00:41:32.590Z,100618.97
2023-01-20T00:44:18.106Z,100625.91
2023-01-20T00:47:20.914Z,100625.88
2023-01-20T00:50:06.677Z,100628.47
2023-01-20T00:52:52.378Z,100636.22
2023-01-20T00:55:38.228Z,100635.28
2023-01-20T00:58:24.015Z,100627.66
2023-01-20T01:01:10.029Z,100631.06
2023-01-20T01:03:55.735Z,100629.34
2023-01-20T01:06:41.374Z,100629.25
2023-01-20T01:09:26.666Z,100631.22
2023-01-20T01:12:12.231Z,100630.34
2023-01-20T01:14:57.650Z,100631.97
2023-01-20T01:17:46.575Z,100648.34
2023-01-20T01:20:32.005Z,100651.81
2023-01-20T01:23:17.333Z,100659.53
2023-01-20T01:26:02.736Z,100660.47
2023-01-20T01:28:49.871Z,100672.53
2023-01-20T01:31:35.684Z,100652.72
2023-01-20T01:34:21.392Z,100664.75
2023-01-20T01:37:06.965Z,100666.63
2023-01-20T01:39:52.503Z,100676.84
2023-01-20T01:42:38.153Z,100674.97
2023-01-20T01:45:29.692Z,100672.47
2023-01-20T01:48:16.148Z,100676.75
2023-01-20T01:51:07.451Z,100680.22
2023-01-20T01:54:05.765Z,100694.88
2023-01-20T01:56:51.769Z,100689.78
2023-01-20T01:59:37.861Z,100674.44
2023-01-20T02:02:24.189Z,100679.53
2023-01-20T02:05:11.909Z,100696.69
2023-01-20T02:07:58.324Z,100688.13
2023-01-20T02:10:43.708Z,100679.34
2023-01-20T02:13:29.435Z,100684.69
2023-01-20T02:16:21.310Z,100696.69
2023-01-20T02:19:15.760Z,100692.44
2023-01-20T02:22:16.143Z,100701.00
2023-01-20T02:25:22.954Z,100707.00
2023-01-20T02:28:42.519Z,100707.75
2023-01-20T02:31:51.848Z,100716.13
2023-01-20T02:34:58.771Z,100708.63
2023-01-20T02:37:55.317Z,100724.06
2023-01-20T02:40:53.467Z,100703.47
2023-01-20T02:44:03.761Z,100726.69
2023-01-20T02:47:09.573Z,100725.06
2023-01-20T02:50:01.117Z,100722.47
2023-01-20T02:52:51.738Z,100725.03
2023-01-20T02:55:53.178Z,100724.16
2023-01-20T02:58:48.532Z,100736.00
2023-01-20T03:01:49.088Z,100737.84
2023-01-20T03:04:41.458Z,100735.31
2023-01-20T03:07:30.128Z,100728.50
2023-01-20T03:10:20.375Z,100735.28
2023-01-20T03:13:13.703Z,100748.22
2023-01-20T03:16:04.399Z,100747.34
2023-01-20T03:18:51.382Z,100741.31
2023-01-20T03:21:37.076Z,100754.25
2023-01-20T03:24:23.913Z,100749.03
2023-01-20T03:27:11.179Z,100748.19
2023-01-20T03:29:56.580Z,100768.88
2023-01-20T03:32:46.207Z,100769.72
2023-01-20T03:35:32.268Z,100770.47
2023-01-20T03:38:17.793Z,100773.09
2023-01-20T03:41:25.979Z,100777.28
2023-01-20T03:44:27.724Z,100782.50
2023-01-20T03:47:34.911Z,100792.06
2023-01-20T03:50:59.808Z,100798.13
2023-01-20T03:53:54.090Z,100802.31
2023-01-20T03:56:51.211Z,100796.41
2023-01-20T03:59:40.343Z,100792.94
2023-01-20T04:02:28.156Z,100799.91
2023-01-20T04:05:14.818Z,100811.88
2023-01-20T04:08:03.474Z,100810.06
2023-01-20T04:10:51.144Z,100807.41
2023-01-20T04:13:36.819Z,100815.22
2023-01-20T04:16:24.683Z,100803.09
2023-01-20T04:19:10.508Z,100805.78
2023-01-20T04:22:10.169Z,100815.28
2023-01-20T04:25:01.221Z,100815.31
2023-01-20T04:27:46.801Z,100816.25
2023-01-20T04:30:32.639Z,100830.06
2023-01-20T04:33:18.321Z,100825.75
2023-01-20T04:36:04.288Z,100825.00
2023-01-20T04:38:49.656Z,100836.22
2023-01-20T04:41:35.106Z,100838.72
2023-01-20T04:44:20.429Z,100838.72
2023-01-20T04:47:06.179Z,100844.84
2023-01-20T04:49:51.606Z,100842.16
2023-01-20T04:52:37.249Z,100855.16
2023-01-20T04:55:22.872Z,100851.63
2023-01-20T04:58:10.222Z,100847.47
2023-01-20T05:00:55.399Z,100839.78
2023-01-20T05:03:41.112Z,100856.94
2023-01-20T05:06:26.999Z,100856.06
2023-01-20T05:09:16.386Z,100856.19
2023-01-20T05:12:02.355Z,100856.94
2023-01-20T05:14:47.988Z,100871.53
2023-01-20T05:17:33.512Z,100871.50
2023-01-20T05:20:20.714Z,100874.94
2023-01-20T05:23:06.977Z,100869.81
2023-01-20T05:25:53.198Z,100881.81
2023-01-20T05:28:38.678Z,100881.78
2023-01-20T05:31:24.085Z,100893.88
2023-01-20T05:34:10.914Z,100895.66
2023-01-20T05:36:56.338Z,100908.50
2023-01-20T05:39:41.894Z,100912.78
2023-01-20T05:42:27.518Z,100914.63
2023-01-20T05:45:13.135Z,100914.72
2023-01-20T05:47:59.648Z,100912.94
2023-01-20T05:50:45.404Z,100930.13
2023-01-20T05:53:30.605Z,100932.69
2023-01-20T05:56:16.388Z,100924.03
2023-01-20T05:59:01.973Z,100940.34
2023-01-20T06:01:47.593Z,100946.38
2023-01-20T06:04:33.422Z,100941.31
2023-01-20T06:07:19.038Z,100957.72
2023-01-20T06:10:05.078Z,100947.34
2023-01-20T06:12:54.880Z,100960.22
2023-01-20T06:15:40.226Z,100959.28
2023-01-20T06:18:25.546Z,100959.47
2023-01-20T06:21:11.553Z,100980.94
2023-01-20T06:23:57.030Z,100973.25
2023-01-20T06:26:42.606Z,100973.19
2023-01-20T06:29:28.222Z,100977.50
2023-01-20T06:32:13.815Z,100978.34
2023-01-20T06:34:59.191Z,100979.28
2023-01-20T06:37:44.524Z,100974.16
2023-01-20T06:40:31.027Z,100981.91
2023-01-20T06:43:16.970Z,100992.19
2023-01-20T06:46:04.944Z,100987.91
2023-01-20T06:48:50.308Z,101000.78
2023-01-20T06:51:35.923Z,100999.09
2023-01-20T06:54:21.575Z,101010.28
2023-01-20T06:57:06.920Z,101018.88
2023-01-20T06:59:52.449Z,101018.88
2023-01-20T07:02:37.827Z,101029.22
2023-01-20T07:05:23.283Z,101032.63
2023-01-20T07:08:08.976Z,101047.25
2023-01-20T07:10:54.467Z,101043.75
2023-01-20T07:13:39.983Z,101049.75
2023-01-20T07:16:25.376Z,101046.44
2023-01-20T07:19:12.004Z,101045.53
2023-01-20T07:21:57.824Z,101050.69
2023-01-20T07:24:42.956Z,101064.41
2023-01-20T07:27:28.552Z,101054.88
2023-01-20T07:30:14.204Z,101071.22
2023-01-20T07:32:59.400Z,101072.13
2023-01-20T07:35:44.774Z,101066.97
2023-01-20T07:38:30.782Z,101085.00
2023-01-20T07:41:18.086Z,101084.16
2023-01-20T07:44:03.404Z,101081.66
2023-01-20T07:46:51.542Z,101079.09
2023-01-20T07:49:37.035Z,101086.84
2023-01-20T07:52:22.768Z,101105.75
2023-01-20T07:55:07.998Z,101106.59
2023-01-20T07:57:53.545Z,101099.72
2023-01-20T08:00:39.277Z,101113.47
2023-01-20T08:03:27.361Z,101124.63
2023-01-20T08:06:15.480Z,101122.06
2023-01-20T08:09:02.009Z,101127.25
2023-01-20T08:11:47.295Z,101135.84
2023-01-20T08:14:32.598Z,101137.53
2023-01-20T08:17:17.891Z,101143.56
2023-01-20T08:20:03.539Z,101145.25
2023-01-20T08:22:48.995Z,101151.31
2023-01-20T08:25:34.370Z,101139.28
2023-01-20T08:28:19.936Z,101153.88
2023-01-20T08:31:08.419Z,101153.00
2023-01-20T08:33:55.631Z,101172.75
2023-01-20T08:36:41.502Z,101171.91
2023-01-20T08:39:27.205Z,101173.59
2023-01-20T08:42:13.004Z,101174.50
2023-01-20T08:44:58.218Z,101178.75
2023-01-20T08:47:45.821Z,101186.50
2023-01-20T08:50:31.211Z,101195.06
2023-01-20T08:53:16.712Z,101194.25
2023-01-20T08:56:03.141Z,101193.34
2023-01-20T08:58:48.755Z,101200.22
2023-01-20T09:01:36.181Z,101207.00
2023-01-20T09:04:21.732Z,101200.88
2023-01-20T09:07:08.149Z,101199.69
2023-01-20T09:09:53.385Z,101186.72
2023-01-20T09:12:39.425Z,101188.69
2023-01-20T09:15:25.713Z,101193.09
2023-01-20T09:18:11.427Z,101199.19
2023-01-20T09:20:58.752Z,101199.25
2023-01-20T09:23:46.944Z,101203.50
2023-01-20T09:26:38.470Z,101214.16
2023-01-20T09:29:24.615Z,101219.41
2023-01-20T09:32:12.819Z,101223.38
2023-01-20T09:34:58.184Z,101229.25
2023-01-20T09:38:01.896Z,101229.00
2023-01-20T09:41:22.999Z,101230.66
2023-01-20T09:44:36.633Z,101235.28
2023-01-20T09:47:30.991Z,101226.38
2023-01-20T09:50:37.429Z,101227.69
2023-01-20T09:53:41.510Z,101236.38
2023-01-20T09:56:29.261Z,101220.84
2023-01-20T09:59:30.731Z,101223.28
2023-01-20T10:02:25.616Z,101229.63
2023-01-20T10:05:13.812Z,101227.56
2023-01-20T10:08:08.287Z,101233.91
2023-01-20T10:11:01.200Z,101232.63
2023-01-20T10:13:56.302Z,101226.41
2023-01-20T10:16:50.267Z,101225.56
2023-01-20T10:19:47.776Z,101242.53
2023-01-20T10:22:53.310Z,101240.94
2023-01-20T10:25:45.267Z,101235.94
2023-01-20T10:28:36.610Z,101233.16
2023-01-20T10:31:27.637Z,101238.25
2023-01-20T10:34:18.814Z,101233.59
2023-01-20T10:37:10.160Z,101242.19
2023-01-20T10:40:13.936Z,101246.38
2023-01-20T10:43:04.295Z,101240.44
2023-01-20T10:46:03.970Z,101237.91
2023-01-20T10:49:27.073Z,101236.34
2023-01-20T10:52:19.612Z,101241.09
2023-01-20T10:55:18.183Z,101247.84
2023-01-20T10:58:20.787Z,101255.53
2023-01-20T11:01:10.353Z,101256.91
2023-01-20T11:03:55.769Z,101268.84
2023-01-20T11:06:41.597Z,101252.59
2023-01-20T11:09:35.084Z,101259.63
2023-01-20T11:12:27.499Z,101260.44
2023-01-20T11:15:33.823Z,101259.06
2023-01-20T11:18:22.392Z,101260.06
2023-01-20T11:21:12.516Z,101258.66
2023-01-20T11:23:58.814Z,101260.69
2023-01-20T11:26:44.316Z,101267.44
2023-01-20T11:29:32.405Z,101278.94
2023-01-20T11:32:35.958Z,101264.16
2023-01-20T11:35:25.160Z,101289.28
2023-01-20T11:38:28.773Z,101285.63
2023-01-20T11:41:23.040Z,101287.75
2023-01-20T11:44:08.557Z,101277.31
2023-01-20T11:46:55.012Z,101298.44
2023-01-20T11:49:40.720Z,101289.28
2023-01-20T11:52:26.157Z,101287.03
2023-01-20T11:55:17.798Z,101288.63
2023-01-20T11:58:04.007Z,101298.22
2023-01-20T12:00:52.191Z,101314.81
2023-01-20T12:03:41.182Z,101315.69
2023-01-20T12:06:30.833Z,101309.94
2023-01-20T12:09:19.774Z,101318.22
2023-01-20T12:12:15.170Z,101318.81
2023-01-20T12:15:19.447Z,101314.44
2023-01-20T12:18:18.958Z,101310.94
2023-01-20T12:21:10.717Z,101315.81
2023-01-20T12:24:07.612Z,101318.56
2023-01-20T12:26:53.757Z,101311.47
2023-01-20T12:29:45.628Z,101320.28
2023-01-20T12:32:33.122Z,101301.16
2023-01-20T12:35:20.957Z,101314.69
2023-01-20T12:38:08.311Z,101321.78
2023-01-20T12:40:55.195Z,101327.13
2023-01-20T12:43:56.444Z,101327.91
2023-01-20T12:47:33.151Z,101336.66
2023-01-20T12:50:44.865Z,101330.28
2023-01-20T12:53:43.508Z,101335.72
2023-01-20T12:57:02.926Z,101323.00
2023-01-20T13:00:05.328Z,101332.47
2023-01-20T13:03:30.164Z,101345.84
2023-01-20T13:06:42.411Z,101347.81
2023-01-20T13:09:52.549Z,101350.84
2023-01-20T13:12:56.852Z,101360.94
2023-01-20T13:15:48.391Z,101358.84
2023-01-20T13:18:47.631Z,101371.88
2023-01-20T13:21:34.186Z,101373.63
2023-01-20T13:24:29.061Z,101370.59
2023-01-20T13:27:23.685Z,101367.84
2023-01-20T13:30:44.239Z,101382.53
2023-01-20T13:33:33.228Z,101383.78
2023-01-20T13:36:23.612Z,101379.28
2023-01-20T13:39:40.546Z,101382.25
2023-01-20T13:42:31.595Z,101397.78
2023-01-20T13:45:19.732Z,101388.97
2023-01-20T13:48:10.951Z,101412.00
2023-01-20T13:51:16.797Z,101414.91
2023-01-20T13:54:32.628Z,101424.81
2023-01-20T13:57:26.036Z,101437.47
2023-01-20T14:00:12.962Z,101430.56
2023-01-20T14:02:58.333Z,101433.94
2023-01-20T14:05:48.979Z,101441.56
2023-01-20T14:08:39.524Z,101435.19
2023-01-20T14:11:26.862Z,101441.06
2023-01-20T14:14:18.817Z,101447.22
2023-01-20T14:17:15.385Z,101450.56
2023-01-20T14:20:00.716Z,101454.94
2023-01-20T14:22:46.366Z,101448.16
2023-01-20T14:25:31.989Z,101464.63
2023-01-20T14:28:19.666Z,101470.75
2023-01-20T14:31:19.514Z,101464.22
2023-01-20T14:34:32.117Z,101480.94
2023-01-20T14:37:24.823Z,101477.25
2023-01-20T14:40:16.279Z,101488.59
2023-01-20T14:43:12.110Z,101499.13
2023-01-20T14:45:57.541Z,101501.03
2023-01-20T14:48:44.514Z,101499.44
2023-01-20T14:51:30.174Z,101505.72
2023-01-20T14:54:49.720Z,101516.25
2023-01-20T14:57:43.424Z,101519.00
2023-01-20T15:00:31.529Z,101522.53
2023-01-20T15:03:25.579Z,101536.53
2023-01-20T15:06:10.909Z,101533.91
2023-01-20T15:09:06.518Z,101530.91
2023-01-20T15:12:45.195Z,101545.69
2023-01-20T15:15:32.323Z,101556.50
2023-01-20T15:18:22.307Z,101545.97
2023-01-20T15:21:27.065Z,101560.72
2023-01-20T15:24:13.608Z,101559.22
2023-01-20T15:27:01.203Z,101577.47
2023-01-20T15:29:59.826Z,101576.13
2023-01-20T15:32:47.238Z,101576.94
2023-01-20T15:35:33.040Z,101581.31
2023-01-20T15:38:18.371Z,101588.25
2023-01-20T15:41:04.068Z,101591.81
2023-01-20T15:43:51.263Z,101598.81
2023-01-20T15:46:38.444Z,101599.72
2023-01-20T15:49:25.033Z,101611.84
2023-01-20T15:52:10.757Z,101629.13
2023-01-20T15:54:56.336Z,101616.16
2023-01-20T15:57:42.624Z,101623.13
2023-01-20T16:00:30.691Z,101626.63
2023-01-20T16:03:16.501Z,101632.66
2023-01-20T16:06:02.049Z,101633.50
2023-01-20T16:08:49.733Z,101640.38
2023-01-20T16:11:35.124Z,101642.97
2023-01-20T16:14:20.695Z,101654.16
2023-01-20T16:17:18.322Z,101661.03
2023-01-20T16:20:03.869Z,101667.72
2023-01-20T16:22:49.623Z,101675.50
2023-01-20T16:25:35.321Z,101686.69
2023-01-20T16:28:23.499Z,101681.53
2023-01-20T16:31:11.493Z,101691.81
2023-01-20T16:33:56.882Z,101695.22
2023-01-20T16:36:42.095Z,101710.53
2023-01-20T16:39:27.892Z,101713.94
2023-01-20T16:42:14.606Z,101719.00
2023-01-20T16:45:00.260Z,101720.72
2023-01-20T16:47:45.667Z,101727.63
2023-01-20T16:50:31.282Z,101744.09
2023-01-20T16:53:18.514Z,101754.50
2023-01-20T16:56:05.194Z,101760.50
2023-01-20T16:58:52.609Z,101762.31
2023-01-20T17:01:38.043Z,101752.91
2023-01-20T17:04:23.831Z,101757.22
2023-01-20T17:07:09.116Z,101767.56
2023-01-20T17:09:55.864Z,101772.59
2023-01-20T17:12:41.471Z,101778.69
2023-01-20T17:15:27.903Z,101785.59
2023-01-20T17:18:13.451Z,101783.84
2023-01-20T17:21:07.040Z,101791.63
2023-01-20T17:23:57.284Z,101800.44
2023-01-20T17:26:42.914Z,101795.16
2023-01-20T17:29:28.185Z,101791.63
2023-01-20T17:32:13.956Z,101811.50
2023-01-20T17:34:59.313Z,101808.78
2023-01-20T17:37:44.865Z,101811.16
2023-01-20T17:40:30.201Z,101811.06
2023-01-20T17:43:15.486Z,101818.72
2023-01-20T17:46:01.906Z,101813.56
2023-01-20T17:48:47.304Z,101827.09
2023-01-20T17:51:33.069Z,101828.91
2023-01-20T17:54:18.325Z,101834.19
2023-01-20T17:57:03.620Z,101835.13
2023-01-20T17:59:49.104Z,101839.56
2023-01-20T18:02:34.874Z,101844.72
2023-01-20T18:05:20.401Z,101844.72
2023-01-20T18:08:05.706Z,101844.88
2023-01-20T18:10:51.268Z,101860.31
2023-01-20T18:13:37.252Z,101858.44
2023-01-20T18:16:26.254Z,101867.97
2023-01-20T18:19:13.918Z,101879.16
2023-01-20T18:22:01.796Z,101879.91
2023-01-20T18:24:47.259Z,101874.69
2023-01-20T18:27:33.208Z,101885.06
2023-01-20T18:30:18.851Z,101883.22
2023-01-20T18:33:04.401Z,101876.22
2023-01-20T18:35:50.120Z,101885.38
2023-01-20T18:38:35.723Z,101889.41
2023-01-20T18:41:21.643Z,101893.69
2023-01-20T18:44:07.631Z,101887.81
2023-01-20T18:46:53.176Z,101900.44
2023-01-20T18:49:38.549Z,101903.63
2023-01-20T18:52:24.074Z,101900.94
2023-01-20T18:55:09.940Z,101901.75
2023-01-20T18:57:55.240Z,101906.91
2023-01-20T19:00:40.936Z,101916.09
2023-01-20T19:03:26.300Z,101909.97
2023-01-20T19:06:14.953Z,101927.09
2023-01-20T19:09:01.149Z,101926.00
2023-01-20T19:11:46.625Z,101934.72
2023-01-20T19:14:32.068Z,101946.00
2023-01-20T19:17:17.347Z,101940.75
2023-01-20T19:20:04.193Z,101941.63
2023-01-20T19:22:49.482Z,101945.13
2023-01-20T19:25:34.950Z,101957.88
2023-01-20T19:28:20.350Z,101957.13
2023-01-20T19:31:08.243Z,101968.97
2023-01-20T19:33:53.667Z,101975.59
2023-01-20T19:36:39.292Z,101969.81
2023-01-20T19:39:24.775Z,101967.13
2023-01-20T19:42:10.154Z,101980.63
2023-01-20T19:44:55.725Z,101978.84
2023-01-20T19:47:41.583Z,101986.47
2023-01-20T19:50:26.918Z,101985.75
2023-01-20T19:53:12.549Z,101988.13
2023-01-20T19:56:02.464Z,101998.50
2023-01-20T19:58:48.347Z,102003.28
2023-01-20T20:01:35.946Z,102008.56
2023-01-20T20:04:23.887Z,102001.50
2023-01-20T20:07:09.236Z,102006.69
2023-01-20T20:09:54.625Z,102003.25
2023-01-20T20:12:40.386Z,102014.69
2023-01-20T20:15:25.756Z,102011.81
2023-01-20T20:18:11.358Z,102016.44
2023-01-20T20:20:57.479Z,102026.00
2023-01-20T20:23:43.199Z,102020.78
2023-01-20T20:26:31.611Z,102028.75
2023-01-20T20:29:19.035Z,102026.53
2023-01-20T20:32:04.684Z,102033.34
2023-01-20T20:34:50.282Z,102028.09
2023-01-20T20:37:35.609Z,102044.72
2023-01-20T20:40:21.238Z,102040.75
2023-01-20T20:43:06.727Z,102051.31
2023-01-20T20:45:52.568Z,102053.13
2023-01-20T20:48:37.948Z,102052.97
2023-01-20T20:51:24.180Z,102060.94
2023-01-20T20:54:11.752Z,102063.50
2023-01-20T20:56:57.167Z,102062.44
2023-01-20T20:59:58.211Z,102064.59
2023-01-20T21:02:44.666Z,102071.41
2023-01-20T21:05:30.120Z,102070.22
2023-01-20T21:08:16.492Z,102083.91
2023-01-20T21:11:03.946Z,102086.44
2023-01-20T21:13:49.712Z,102072.59
2023-01-20T21:16:35.676Z,102082.81
2023-01-20T21:19:24.335Z,102076.97
2023-01-20T21:22:09.929Z,102084.75
2023-01-20T21:24:55.280Z,102085.41
2023-01-20T21:27:41.046Z,102093.00
2023-01-20T21:30:26.374Z,102081.59
2023-01-20T21:33:17.506Z,102096.47
2023-01-20T21:36:03.095Z,102098.13
2023-01-20T21:38:48.507Z,102103.13
2023-01-20T21:41:34.239Z,102106.72
2023-01-20T21:44:28.249Z,102122.22
2023-01-20T21:47:13.640Z,102125.66
2023-01-20T21:50:17.764Z,102116.44
2023-01-20T21:53:03.661Z,102124.44
2023-01-20T21:55:49.320Z,102123.75
2023-01-20T21:58:34.586Z,102127.84
2023-01-20T22:01:19.912Z,102142.28
2023-01-20T22:04:05.381Z,102142.53
2023-01-20T22:06:50.767Z,102137.59
2023-01-20T22:09:36.308Z,102141.63
2023-01-20T22:12:21.577Z,102139.56
2023-01-20T22:15:07.594Z,102141.28
2023-01-20T22:17:53.011Z,102148.94
2023-01-20T22:20:38.664Z,102140.97
2023-01-20T22:23:24.384Z,102157.50
2023-01-20T22:26:10.282Z,102165.47
2023-01-20T22:28:55.937Z,102162.09
2023-01-20T22:31:41.153Z,102169.97
2023-01-20T22:34:26.812Z,102180.56
2023-01-20T22:37:12.397Z,102187.72
2023-01-20T22:39:57.846Z,102190.19
2023-01-20T22:42:43.547Z,102185.91
2023-01-20T22:45:28.870Z,102198.16
2023-01-20T22:48:14.304Z,102192.88
2023-01-20T22:51:11.284Z,102202.56
2023-01-20T22:53:59.284Z,102206.91
2023-01-20T22:56:44.724Z,102203.47
2023-01-20T22:59:29.998Z,102209.50
2023-01-20T23:02:15.577Z,102201.75
2023-01-20T23:05:00.897Z,102199.16
2023-01-20T23:07:46.569Z,102206.88
2023-01-20T23:10:46.907Z,102206.16
2023-01-20T23:13:32.918Z,102223.41
2023-01-20T23:16:22.204Z,102216.69
2023-01-20T23:19:07.973Z,102215.66
2023-01-20T23:21:53.584Z,102220.28
2023-01-20T23:24:39.305Z,102225.28
2023-01-20T23:27:24.615Z,102226.13
2023-01-20T23:30:12.733Z,102229.84
2023-01-20T23:32:58.064Z,102227.34
2023-01-20T23:35:43.639Z,102231.63
2023-01-20T23:38:28.941Z,102228.91
2023-01-20T23:41:15.339Z,102244.63
2023-01-20T23:44:00.742Z,102241.09
2023-01-20T23:46:46.095Z,102240.25
2023-01-20T23:49:31.652Z,102243.81
2023-01-20T23:52:16.917Z,102240.28
2023-01-20T23:55:02.324Z,102246.50
2023-01-20T23:57:47.805Z,102248.19
